sensor_id;sensor_type;location;lat;lon;timestamp;P1;durP1;ratioP1;P2;durP2;ratioP2
50671;SDS011;46021;55.882;37.654;2023-09-12T00:01:23;27.40;;;16.92;;
50671;SDS011;46021;55.882;37.654;2023-09-12T00:03:50;29.10;;;18.17;;
50671;SDS011;46021;55.882;37.654;2023-09-12T00:06:19;18.02;;;8.05;;
50671;SDS011;46021;55.882;37.654;2023-09-12T00:08:46;30.83;;;18.10;;
50671;SDS011;46021;55.882;37.654;2023-09-12T00:11:13;16.40;;;7.72;;
50671;SDS011;46021;55.882;37.654;2023-09-12T00:13:40;28.50;;;16.50;;
50671;SDS011;46021;55.882;37.654;2023-09-12T00:16:08;30.40;;;17.55;;
50671;SDS011;46021;55.882;37.654;2023-09-12T00:18:36;28.20;;;17.20;;
50671;SDS011;46021;55.882;37.654;2023-09-12T00:21:08;30.33;;;18.40;;
50671;SDS011;46021;55.882;37.654;2023-09-12T00:23:36;29.55;;;17.40;;
50671;SDS011;46021;55.882;37.654;2023-09-12T00:26:03;28.55;;;18.45;;
50671;SDS011;46021;55.882;37.654;2023-09-12T00:28:30;32.35;;;18.52;;
50671;SDS011;46021;55.882;37.654;2023-09-12T00:30:58;32.65;;;18.00;;
50671;SDS011;46021;55.882;37.654;2023-09-12T00:33:26;17.13;;;7.93;;
50671;SDS011;46021;55.882;37.654;2023-09-12T00:35:53;23.45;;;9.25;;
50671;SDS011;46021;55.882;37.654;2023-09-12T00:38:20;35.53;;;20.25;;
50671;SDS011;46021;55.882;37.654;2023-09-12T00:40:49;28.48;;;9.90;;
50671;SDS011;46021;55.882;37.654;2023-09-12T00:43:16;31.98;;;19.30;;
50671;SDS011;46021;55.882;37.654;2023-09-12T00:45:43;32.35;;;19.58;;
50671;SDS011;46021;55.882;37.654;2023-09-12T00:48:10;22.42;;;10.40;;
50671;SDS011;46021;55.882;37.654;2023-09-12T00:50:39;32.72;;;19.38;;
50671;SDS011;46021;55.882;37.654;2023-09-12T00:53:08;28.73;;;17.65;;
50671;SDS011;46021;55.882;37.654;2023-09-12T00:55:36;30.20;;;18.65;;
50671;SDS011;46021;55.882;37.654;2023-09-12T00:58:10;32.83;;;17.83;;
50671;SDS011;46021;55.882;37.654;2023-09-12T01:00:37;30.88;;;18.25;;
50671;SDS011;46021;55.882;37.654;2023-09-12T01:03:04;35.00;;;19.20;;
50671;SDS011;46021;55.882;37.654;2023-09-12T01:05:32;37.30;;;19.83;;
50671;SDS011;46021;55.882;37.654;2023-09-12T01:07:59;30.52;;;18.20;;
50671;SDS011;46021;55.882;37.654;2023-09-12T01:12:54;30.58;;;18.45;;
50671;SDS011;46021;55.882;37.654;2023-09-12T01:15:23;17.42;;;8.02;;
50671;SDS011;46021;55.882;37.654;2023-09-12T01:17:50;36.80;;;18.60;;
50671;SDS011;46021;55.882;37.654;2023-09-12T01:20:19;38.80;;;19.23;;
50671;SDS011;46021;55.882;37.654;2023-09-12T01:22:56;34.47;;;18.38;;
50671;SDS011;46021;55.882;37.654;2023-09-12T01:25:34;34.40;;;19.67;;
50671;SDS011;46021;55.882;37.654;2023-09-12T01:28:14;36.35;;;22.13;;
50671;SDS011;46021;55.882;37.654;2023-09-12T01:30:44;38.22;;;21.80;;
50671;SDS011;46021;55.882;37.654;2023-09-12T01:33:13;38.67;;;20.42;;
50671;SDS011;46021;55.882;37.654;2023-09-12T01:35:40;20.92;;;7.95;;
50671;SDS011;46021;55.882;37.654;2023-09-12T01:38:08;39.78;;;21.70;;
50671;SDS011;46021;55.882;37.654;2023-09-12T01:40:38;22.63;;;10.35;;
50671;SDS011;46021;55.882;37.654;2023-09-12T01:43:10;38.10;;;19.63;;
50671;SDS011;46021;55.882;37.654;2023-09-12T01:45:40;37.85;;;20.92;;
50671;SDS011;46021;55.882;37.654;2023-09-12T01:48:08;37.40;;;21.15;;
50671;SDS011;46021;55.882;37.654;2023-09-12T01:50:37;33.60;;;20.05;;
50671;SDS011;46021;55.882;37.654;2023-09-12T01:53:05;25.45;;;10.18;;
50671;SDS011;46021;55.882;37.654;2023-09-12T01:55:32;16.98;;;8.43;;
50671;SDS011;46021;55.882;37.654;2023-09-12T01:58:00;37.45;;;19.85;;
50671;SDS011;46021;55.882;37.654;2023-09-12T02:00:29;32.58;;;18.52;;
50671;SDS011;46021;55.882;37.654;2023-09-12T02:02:57;20.33;;;7.55;;
50671;SDS011;46021;55.882;37.654;2023-09-12T02:05:24;33.22;;;20.08;;
50671;SDS011;46021;55.882;37.654;2023-09-12T02:07:52;32.17;;;18.45;;
50671;SDS011;46021;55.882;37.654;2023-09-12T02:10:19;32.65;;;18.17;;
50671;SDS011;46021;55.882;37.654;2023-09-12T02:12:47;34.00;;;19.10;;
50671;SDS011;46021;55.882;37.654;2023-09-12T02:15:14;35.30;;;19.40;;
50671;SDS011;46021;55.882;37.654;2023-09-12T02:17:41;24.80;;;9.53;;
50671;SDS011;46021;55.882;37.654;2023-09-12T02:20:30;35.58;;;19.50;;
50671;SDS011;46021;55.882;37.654;2023-09-12T02:22:58;33.78;;;19.40;;
50671;SDS011;46021;55.882;37.654;2023-09-12T02:25:25;30.25;;;19.02;;
50671;SDS011;46021;55.882;37.654;2023-09-12T02:27:52;25.88;;;9.82;;
50671;SDS011;46021;55.882;37.654;2023-09-12T02:30:20;21.83;;;9.27;;
50671;SDS011;46021;55.882;37.654;2023-09-12T02:32:47;22.43;;;10.03;;
50671;SDS011;46021;55.882;37.654;2023-09-12T02:35:14;34.15;;;18.75;;
50671;SDS011;46021;55.882;37.654;2023-09-12T02:37:42;27.77;;;10.27;;
50671;SDS011;46021;55.882;37.654;2023-09-12T02:40:09;33.92;;;19.35;;
50671;SDS011;46021;55.882;37.654;2023-09-12T02:45:04;39.50;;;21.65;;
50671;SDS011;46021;55.882;37.654;2023-09-12T02:47:33;34.30;;;20.80;;
50671;SDS011;46021;55.882;37.654;2023-09-12T02:50:00;19.73;;;9.95;;
50671;SDS011;46021;55.882;37.654;2023-09-12T02:52:29;40.97;;;23.90;;
50671;SDS011;46021;55.882;37.654;2023-09-12T02:54:58;28.93;;;10.40;;
50671;SDS011;46021;55.882;37.654;2023-09-12T02:57:25;35.33;;;20.90;;
50671;SDS011;46021;55.882;37.654;2023-09-12T02:59:52;32.33;;;11.75;;
50671;SDS011;46021;55.882;37.654;2023-09-12T03:02:19;26.48;;;9.05;;
50671;SDS011;46021;55.882;37.654;2023-09-12T03:04:46;35.53;;;20.13;;
50671;SDS011;46021;55.882;37.654;2023-09-12T03:07:13;32.05;;;10.07;;
50671;SDS011;46021;55.882;37.654;2023-09-12T03:09:40;25.00;;;9.40;;
50671;SDS011;46021;55.882;37.654;2023-09-12T03:12:09;18.53;;;9.80;;
50671;SDS011;46021;55.882;37.654;2023-09-12T03:14:37;35.33;;;19.42;;
50671;SDS011;46021;55.882;37.654;2023-09-12T03:17:04;36.15;;;20.50;;
50671;SDS011;46021;55.882;37.654;2023-09-12T03:19:31;36.13;;;20.60;;
50671;SDS011;46021;55.882;37.654;2023-09-12T03:21:58;18.97;;;9.53;;
50671;SDS011;46021;55.882;37.654;2023-09-12T03:24:25;34.43;;;20.33;;
50671;SDS011;46021;55.882;37.654;2023-09-12T03:26:54;36.13;;;20.73;;
50671;SDS011;46021;55.882;37.654;2023-09-12T03:29:23;24.52;;;10.07;;
50671;SDS011;46021;55.882;37.654;2023-09-12T03:31:50;36.50;;;20.15;;
50671;SDS011;46021;55.882;37.654;2023-09-12T03:34:17;30.20;;;10.63;;
50671;SDS011;46021;55.882;37.654;2023-09-12T03:36:44;32.53;;;19.65;;
50671;SDS011;46021;55.882;37.654;2023-09-12T03:39:11;35.30;;;19.75;;
50671;SDS011;46021;55.882;37.654;2023-09-12T03:41:39;36.13;;;21.02;;
50671;SDS011;46021;55.882;37.654;2023-09-12T03:44:06;36.97;;;21.63;;
50671;SDS011;46021;55.882;37.654;2023-09-12T03:46:35;34.88;;;21.40;;
50671;SDS011;46021;55.882;37.654;2023-09-12T03:49:02;34.28;;;21.30;;
50671;SDS011;46021;55.882;37.654;2023-09-12T03:51:29;28.63;;;18.37;;
50671;SDS011;46021;55.882;37.654;2023-09-12T03:53:56;37.70;;;21.07;;
50671;SDS011;46021;55.882;37.654;2023-09-12T03:56:23;39.13;;;21.83;;
50671;SDS011;46021;55.882;37.654;2023-09-12T03:58:50;41.67;;;22.35;;
50671;SDS011;46021;55.882;37.654;2023-09-12T04:01:19;34.97;;;21.02;;
50671;SDS011;46021;55.882;37.654;2023-09-12T04:03:47;33.72;;;17.83;;
50671;SDS011;46021;55.882;37.654;2023-09-12T04:06:15;29.05;;;18.02;;
50671;SDS011;46021;55.882;37.654;2023-09-12T04:08:42;30.73;;;18.73;;
50671;SDS011;46021;55.882;37.654;2023-09-12T04:11:09;30.87;;;17.87;;
50671;SDS011;46021;55.882;37.654;2023-09-12T04:13:37;26.50;;;17.10;;
50671;SDS011;46021;55.882;37.654;2023-09-12T04:16:04;27.58;;;17.40;;
50671;SDS011;46021;55.882;37.654;2023-09-12T04:18:31;29.55;;;17.75;;
50671;SDS011;46021;55.882;37.654;2023-09-12T04:20:59;27.02;;;16.85;;
50671;SDS011;46021;55.882;37.654;2023-09-12T04:23:27;24.95;;;16.88;;
50671;SDS011;46021;55.882;37.654;2023-09-12T04:25:54;26.63;;;16.27;;
50671;SDS011;46021;55.882;37.654;2023-09-12T04:28:21;26.02;;;17.05;;
50671;SDS011;46021;55.882;37.654;2023-09-12T04:30:48;29.23;;;16.77;;
50671;SDS011;46021;55.882;37.654;2023-09-12T04:33:15;31.90;;;17.50;;
50671;SDS011;46021;55.882;37.654;2023-09-12T04:35:42;30.88;;;19.67;;
50671;SDS011;46021;55.882;37.654;2023-09-12T04:38:10;28.42;;;18.10;;
50671;SDS011;46021;55.882;37.654;2023-09-12T04:40:38;28.75;;;18.15;;
50671;SDS011;46021;55.882;37.654;2023-09-12T04:45:32;30.02;;;18.92;;
50671;SDS011;46021;55.882;37.654;2023-09-12T04:50:27;35.55;;;22.63;;
50671;SDS011;46021;55.882;37.654;2023-09-12T04:52:54;32.70;;;21.60;;
50671;SDS011;46021;55.882;37.654;2023-09-12T04:55:23;32.58;;;21.05;;
50671;SDS011;46021;55.882;37.654;2023-09-12T04:57:50;30.48;;;19.75;;
50671;SDS011;46021;55.882;37.654;2023-09-12T05:00:17;30.55;;;19.80;;
50671;SDS011;46021;55.882;37.654;2023-09-12T05:02:45;30.90;;;19.70;;
50671;SDS011;46021;55.882;37.654;2023-09-12T05:05:11;34.15;;;19.73;;
50671;SDS011;46021;55.882;37.654;2023-09-12T05:07:39;36.15;;;19.48;;
50671;SDS011;46021;55.882;37.654;2023-09-12T05:10:06;27.60;;;18.30;;
50671;SDS011;46021;55.882;37.654;2023-09-12T05:12:35;26.85;;;18.10;;
50671;SDS011;46021;55.882;37.654;2023-09-12T05:15:02;25.48;;;17.10;;
50671;SDS011;46021;55.882;37.654;2023-09-12T05:17:31;29.15;;;17.98;;
50671;SDS011;46021;55.882;37.654;2023-09-12T05:19:58;25.45;;;16.10;;
50671;SDS011;46021;55.882;37.654;2023-09-12T05:22:25;22.67;;;15.63;;
50671;SDS011;46021;55.882;37.654;2023-09-12T05:24:52;22.25;;;15.27;;
50671;SDS011;46021;55.882;37.654;2023-09-12T05:27:19;21.70;;;14.15;;
50671;SDS011;46021;55.882;37.654;2023-09-12T05:29:48;22.10;;;12.63;;
50671;SDS011;46021;55.882;37.654;2023-09-12T05:32:15;22.33;;;13.52;;
50671;SDS011;46021;55.882;37.654;2023-09-12T05:37:10;22.00;;;14.33;;
50671;SDS011;46021;55.882;37.654;2023-09-12T05:39:37;22.08;;;12.70;;
50671;SDS011;46021;55.882;37.654;2023-09-12T05:42:05;24.35;;;13.73;;
50671;SDS011;46021;55.882;37.654;2023-09-12T05:44:32;24.60;;;14.80;;
50671;SDS011;46021;55.882;37.654;2023-09-12T05:47:00;18.75;;;12.05;;
50671;SDS011;46021;55.882;37.654;2023-09-12T05:49:27;17.92;;;11.90;;
50671;SDS011;46021;55.882;37.654;2023-09-12T05:51:55;20.65;;;13.10;;
50671;SDS011;46021;55.882;37.654;2023-09-12T05:54:22;26.25;;;15.05;;
50671;SDS011;46021;55.882;37.654;2023-09-12T05:56:49;19.17;;;12.93;;
50671;SDS011;46021;55.882;37.654;2023-09-12T05:59:16;20.35;;;13.00;;
50671;SDS011;46021;55.882;37.654;2023-09-12T06:01:43;27.35;;;15.05;;
50671;SDS011;46021;55.882;37.654;2023-09-12T06:04:12;24.33;;;14.93;;
50671;SDS011;46021;55.882;37.654;2023-09-12T06:06:39;22.67;;;14.10;;
50671;SDS011;46021;55.882;37.654;2023-09-12T06:09:06;23.02;;;14.00;;
50671;SDS011;46021;55.882;37.654;2023-09-12T06:14:01;21.42;;;13.25;;
50671;SDS011;46021;55.882;37.654;2023-09-12T06:16:28;23.63;;;15.40;;
50671;SDS011;46021;55.882;37.654;2023-09-12T06:18:55;24.27;;;15.38;;
50671;SDS011;46021;55.882;37.654;2023-09-12T06:21:23;25.67;;;14.60;;
50671;SDS011;46021;55.882;37.654;2023-09-12T06:26:36;27.48;;;14.73;;
50671;SDS011;46021;55.882;37.654;2023-09-12T06:29:03;24.60;;;14.65;;
50671;SDS011;46021;55.882;37.654;2023-09-12T06:31:31;24.48;;;14.80;;
50671;SDS011;46021;55.882;37.654;2023-09-12T06:33:58;25.10;;;14.93;;
50671;SDS011;46021;55.882;37.654;2023-09-12T06:36:27;22.63;;;14.05;;
50671;SDS011;46021;55.882;37.654;2023-09-12T06:38:55;22.98;;;14.40;;
50671;SDS011;46021;55.882;37.654;2023-09-12T06:41:22;21.07;;;13.80;;
50671;SDS011;46021;55.882;37.654;2023-09-12T06:43:50;28.35;;;14.10;;
50671;SDS011;46021;55.882;37.654;2023-09-12T06:46:17;25.73;;;14.70;;
50671;SDS011;46021;55.882;37.654;2023-09-12T06:48:44;24.13;;;15.63;;
50671;SDS011;46021;55.882;37.654;2023-09-12T06:51:12;23.60;;;15.18;;
50671;SDS011;46021;55.882;37.654;2023-09-12T06:53:40;23.23;;;14.98;;
50671;SDS011;46021;55.882;37.654;2023-09-12T06:56:07;23.27;;;14.60;;
50671;SDS011;46021;55.882;37.654;2023-09-12T06:58:35;25.27;;;15.13;;
50671;SDS011;46021;55.882;37.654;2023-09-12T07:01:02;24.02;;;14.48;;
50671;SDS011;46021;55.882;37.654;2023-09-12T07:03:30;22.80;;;13.95;;
50671;SDS011;46021;55.882;37.654;2023-09-12T07:05:57;22.20;;;13.60;;
50671;SDS011;46021;55.882;37.654;2023-09-12T07:08:24;25.35;;;14.48;;
50671;SDS011;46021;55.882;37.654;2023-09-12T07:10:53;23.85;;;15.75;;
50671;SDS011;46021;55.882;37.654;2023-09-12T07:13:22;23.50;;;14.55;;
50671;SDS011;46021;55.882;37.654;2023-09-12T07:15:49;26.42;;;16.40;;
50671;SDS011;46021;55.882;37.654;2023-09-12T07:18:16;25.55;;;15.25;;
50671;SDS011;46021;55.882;37.654;2023-09-12T07:20:45;24.98;;;15.57;;
50671;SDS011;46021;55.882;37.654;2023-09-12T07:23:12;25.42;;;15.00;;
50671;SDS011;46021;55.882;37.654;2023-09-12T07:25:39;29.83;;;18.10;;
50671;SDS011;46021;55.882;37.654;2023-09-12T07:28:09;27.73;;;17.75;;
50671;SDS011;46021;55.882;37.654;2023-09-12T07:30:36;28.33;;;15.63;;
50671;SDS011;46021;55.882;37.654;2023-09-12T07:35:31;23.85;;;15.13;;
50671;SDS011;46021;55.882;37.654;2023-09-12T07:37:58;29.77;;;15.47;;
50671;SDS011;46021;55.882;37.654;2023-09-12T07:40:26;24.45;;;14.57;;
50671;SDS011;46021;55.882;37.654;2023-09-12T07:42:54;27.13;;;16.03;;
50671;SDS011;46021;55.882;37.654;2023-09-12T07:45:22;22.33;;;13.95;;
50671;SDS011;46021;55.882;37.654;2023-09-12T07:47:49;26.45;;;13.73;;
50671;SDS011;46021;55.882;37.654;2023-09-12T07:50:16;20.07;;;12.90;;
50671;SDS011;46021;55.882;37.654;2023-09-12T07:52:43;21.98;;;13.05;;
50671;SDS011;46021;55.882;37.654;2023-09-12T07:55:11;24.90;;;14.23;;
50671;SDS011;46021;55.882;37.654;2023-09-12T07:57:38;23.65;;;14.30;;
50671;SDS011;46021;55.882;37.654;2023-09-12T08:00:05;19.67;;;12.30;;
50671;SDS011;46021;55.882;37.654;2023-09-12T08:02:40;23.58;;;13.55;;
50671;SDS011;46021;55.882;37.654;2023-09-12T08:05:07;21.25;;;13.57;;
50671;SDS011;46021;55.882;37.654;2023-09-12T08:07:35;21.17;;;13.02;;
50671;SDS011;46021;55.882;37.654;2023-09-12T08:10:02;21.92;;;12.70;;
50671;SDS011;46021;55.882;37.654;2023-09-12T08:12:30;22.98;;;13.15;;
50671;SDS011;46021;55.882;37.654;2023-09-12T08:14:57;27.30;;;13.82;;
50671;SDS011;46021;55.882;37.654;2023-09-12T08:17:25;19.20;;;12.32;;
50671;SDS011;46021;55.882;37.654;2023-09-12T08:19:54;22.63;;;12.60;;
50671;SDS011;46021;55.882;37.654;2023-09-12T08:22:21;22.15;;;11.95;;
50671;SDS011;46021;55.882;37.654;2023-09-12T08:24:48;18.25;;;11.80;;
50671;SDS011;46021;55.882;37.654;2023-09-12T08:27:15;17.97;;;10.90;;
50671;SDS011;46021;55.882;37.654;2023-09-12T08:29:43;18.58;;;12.05;;
50671;SDS011;46021;55.882;37.654;2023-09-12T08:32:12;19.77;;;12.27;;
50671;SDS011;46021;55.882;37.654;2023-09-12T08:34:39;18.75;;;11.52;;
50671;SDS011;46021;55.882;37.654;2023-09-12T08:37:07;24.00;;;11.80;;
50671;SDS011;46021;55.882;37.654;2023-09-12T08:39:39;17.58;;;11.05;;
50671;SDS011;46021;55.882;37.654;2023-09-12T08:42:09;21.00;;;11.82;;
50671;SDS011;46021;55.882;37.654;2023-09-12T08:44:38;24.30;;;11.63;;
50671;SDS011;46021;55.882;37.654;2023-09-12T08:47:07;23.65;;;10.90;;
50671;SDS011;46021;55.882;37.654;2023-09-12T08:49:35;17.30;;;11.43;;
50671;SDS011;46021;55.882;37.654;2023-09-12T08:52:02;16.48;;;10.63;;
50671;SDS011;46021;55.882;37.654;2023-09-12T08:54:32;18.92;;;11.23;;
50671;SDS011;46021;55.882;37.654;2023-09-12T08:57:00;21.33;;;9.75;;
50671;SDS011;46021;55.882;37.654;2023-09-12T08:59:29;13.52;;;9.23;;
50671;SDS011;46021;55.882;37.654;2023-09-12T09:01:58;14.05;;;9.50;;
50671;SDS011;46021;55.882;37.654;2023-09-12T09:04:28;14.15;;;8.82;;
50671;SDS011;46021;55.882;37.654;2023-09-12T09:06:56;17.95;;;9.32;;
50671;SDS011;46021;55.882;37.654;2023-09-12T09:09:25;12.45;;;8.88;;
50671;SDS011;46021;55.882;37.654;2023-09-12T09:11:54;13.20;;;7.90;;
50671;SDS011;46021;55.882;37.654;2023-09-12T09:14:22;13.82;;;8.68;;
50671;SDS011;46021;55.882;37.654;2023-09-12T09:16:49;17.67;;;7.05;;
50671;SDS011;46021;55.882;37.654;2023-09-12T09:19:16;11.60;;;7.45;;
50671;SDS011;46021;55.882;37.654;2023-09-12T09:21:45;16.20;;;7.50;;
50671;SDS011;46021;55.882;37.654;2023-09-12T09:24:13;10.68;;;7.10;;
50671;SDS011;46021;55.882;37.654;2023-09-12T09:26:44;10.20;;;6.82;;
50671;SDS011;46021;55.882;37.654;2023-09-12T09:29:15;10.02;;;6.50;;
50671;SDS011;46021;55.882;37.654;2023-09-12T09:31:43;11.90;;;5.95;;
50671;SDS011;46021;55.882;37.654;2023-09-12T09:34:12;9.25;;;5.97;;
50671;SDS011;46021;55.882;37.654;2023-09-12T09:36:41;10.90;;;6.72;;
50671;SDS011;46021;55.882;37.654;2023-09-12T09:39:09;17.25;;;7.35;;
50671;SDS011;46021;55.882;37.654;2023-09-12T09:41:37;13.57;;;8.27;;
50671;SDS011;46021;55.882;37.654;2023-09-12T09:44:05;14.25;;;6.82;;
50671;SDS011;46021;55.882;37.654;2023-09-12T09:46:33;66.63;;;46.38;;
50671;SDS011;46021;55.882;37.654;2023-09-12T09:49:01;15.63;;;10.88;;
50671;SDS011;46021;55.882;37.654;2023-09-12T09:51:29;10.55;;;7.28;;
50671;SDS011;46021;55.882;37.654;2023-09-12T09:53:57;10.73;;;6.55;;
50671;SDS011;46021;55.882;37.654;2023-09-12T09:56:26;9.07;;;6.28;;
50671;SDS011;46021;55.882;37.654;2023-09-12T09:58:53;10.70;;;6.43;;
50671;SDS011;46021;55.882;37.654;2023-09-12T10:01:22;10.80;;;6.45;;
50671;SDS011;46021;55.882;37.654;2023-09-12T10:03:56;10.85;;;5.93;;
50671;SDS011;46021;55.882;37.654;2023-09-12T10:06:24;13.52;;;6.28;;
50671;SDS011;46021;55.882;37.654;2023-09-12T10:08:54;9.90;;;6.15;;
50671;SDS011;46021;55.882;37.654;2023-09-12T10:11:24;7.28;;;5.10;;
50671;SDS011;46021;55.882;37.654;2023-09-12T10:13:57;12.55;;;5.47;;
50671;SDS011;46021;55.882;37.654;2023-09-12T10:16:28;8.80;;;5.53;;
50671;SDS011;46021;55.882;37.654;2023-09-12T10:18:58;8.57;;;5.80;;
50671;SDS011;46021;55.882;37.654;2023-09-12T10:21:32;10.55;;;5.55;;
50671;SDS011;46021;55.882;37.654;2023-09-12T10:24:02;7.18;;;4.95;;
50671;SDS011;46021;55.882;37.654;2023-09-12T10:26:31;17.00;;;9.98;;
50671;SDS011;46021;55.882;37.654;2023-09-12T10:28:59;10.43;;;7.43;;
50671;SDS011;46021;55.882;37.654;2023-09-12T10:31:29;10.25;;;4.85;;
50671;SDS011;46021;55.882;37.654;2023-09-12T10:33:58;7.90;;;4.97;;
50671;SDS011;46021;55.882;37.654;2023-09-12T10:36:27;8.65;;;5.25;;
50671;SDS011;46021;55.882;37.654;2023-09-12T10:38:56;9.55;;;4.85;;
50671;SDS011;46021;55.882;37.654;2023-09-12T10:41:26;8.35;;;4.35;;
50671;SDS011;46021;55.882;37.654;2023-09-12T10:43:53;8.38;;;5.07;;
50671;SDS011;46021;55.882;37.654;2023-09-12T10:46:22;7.22;;;4.78;;
50671;SDS011;46021;55.882;37.654;2023-09-12T10:48:49;10.85;;;5.68;;
50671;SDS011;46021;55.882;37.654;2023-09-12T10:51:18;7.63;;;4.72;;
50671;SDS011;46021;55.882;37.654;2023-09-12T10:53:46;14.13;;;5.13;;
50671;SDS011;46021;55.882;37.654;2023-09-12T10:56:19;7.65;;;5.15;;
50671;SDS011;46021;55.882;37.654;2023-09-12T11:01:37;9.65;;;5.72;;
50671;SDS011;46021;55.882;37.654;2023-09-12T11:07:01;7.90;;;5.05;;
50671;SDS011;46021;55.882;37.654;2023-09-12T11:09:50;9.40;;;6.22;;
50671;SDS011;46021;55.882;37.654;2023-09-12T11:12:46;7.40;;;5.03;;
50671;SDS011;46021;55.882;37.654;2023-09-12T11:15:14;12.88;;;5.65;;
50671;SDS011;46021;55.882;37.654;2023-09-12T11:17:42;9.27;;;4.80;;
50671;SDS011;46021;55.882;37.654;2023-09-12T11:20:10;9.20;;;5.28;;
50671;SDS011;46021;55.882;37.654;2023-09-12T11:22:40;9.10;;;6.10;;
50671;SDS011;46021;55.882;37.654;2023-09-12T11:25:18;7.68;;;5.35;;
50671;SDS011;46021;55.882;37.654;2023-09-12T11:28:03;8.32;;;5.28;;
50671;SDS011;46021;55.882;37.654;2023-09-12T11:30:31;13.10;;;5.25;;
50671;SDS011;46021;55.882;37.654;2023-09-12T11:35:49;9.40;;;4.25;;
50671;SDS011;46021;55.882;37.654;2023-09-12T11:38:27;16.98;;;5.70;;
50671;SDS011;46021;55.882;37.654;2023-09-12T11:40:56;7.70;;;5.15;;
50671;SDS011;46021;55.882;37.654;2023-09-12T11:43:25;8.65;;;4.85;;
50671;SDS011;46021;55.882;37.654;2023-09-12T11:45:54;9.18;;;5.30;;
50671;SDS011;46021;55.882;37.654;2023-09-12T11:48:22;7.45;;;4.90;;
50671;SDS011;46021;55.882;37.654;2023-09-12T11:50:49;8.23;;;5.22;;
50671;SDS011;46021;55.882;37.654;2023-09-12T11:53:19;10.52;;;6.30;;
50671;SDS011;46021;55.882;37.654;2023-09-12T11:55:52;9.20;;;5.68;;
50671;SDS011;46021;55.882;37.654;2023-09-12T11:58:21;10.38;;;6.07;;
50671;SDS011;46021;55.882;37.654;2023-09-12T12:00:49;8.88;;;5.30;;
50671;SDS011;46021;55.882;37.654;2023-09-12T12:03:17;9.00;;;5.15;;
50671;SDS011;46021;55.882;37.654;2023-09-12T12:05:46;7.60;;;5.00;;
50671;SDS011;46021;55.882;37.654;2023-09-12T12:08:13;7.75;;;5.47;;
50671;SDS011;46021;55.882;37.654;2023-09-12T12:10:42;9.40;;;5.13;;
50671;SDS011;46021;55.882;37.654;2023-09-12T12:13:15;7.55;;;4.80;;
50671;SDS011;46021;55.882;37.654;2023-09-12T12:15:42;8.00;;;5.07;;
50671;SDS011;46021;55.882;37.654;2023-09-12T12:18:10;6.68;;;4.63;;
50671;SDS011;46021;55.882;37.654;2023-09-12T12:20:37;7.25;;;4.68;;
50671;SDS011;46021;55.882;37.654;2023-09-12T12:23:04;10.30;;;4.30;;
50671;SDS011;46021;55.882;37.654;2023-09-12T12:25:31;11.27;;;5.13;;
50671;SDS011;46021;55.882;37.654;2023-09-12T12:28:00;9.48;;;4.63;;
50671;SDS011;46021;55.882;37.654;2023-09-12T12:30:31;6.50;;;4.88;;
50671;SDS011;46021;55.882;37.654;2023-09-12T12:33:00;7.07;;;4.93;;
50671;SDS011;46021;55.882;37.654;2023-09-12T12:35:28;11.77;;;5.15;;
50671;SDS011;46021;55.882;37.654;2023-09-12T12:37:55;9.02;;;4.47;;
50671;SDS011;46021;55.882;37.654;2023-09-12T12:40:23;10.57;;;4.78;;
50671;SDS011;46021;55.882;37.654;2023-09-12T12:42:51;7.43;;;5.13;;
50671;SDS011;46021;55.882;37.654;2023-09-12T12:45:19;9.77;;;4.28;;
50671;SDS011;46021;55.882;37.654;2023-09-12T12:47:50;7.15;;;4.70;;
50671;SDS011;46021;55.882;37.654;2023-09-12T12:50:18;8.40;;;5.63;;
50671;SDS011;46021;55.882;37.654;2023-09-12T12:52:46;12.60;;;5.10;;
50671;SDS011;46021;55.882;37.654;2023-09-12T12:55:15;12.82;;;4.50;;
50671;SDS011;46021;55.882;37.654;2023-09-12T12:57:45;6.38;;;3.90;;
50671;SDS011;46021;55.882;37.654;2023-09-12T13:00:15;6.68;;;4.32;;
50671;SDS011;46021;55.882;37.654;2023-09-12T13:02:44;7.70;;;4.68;;
50671;SDS011;46021;55.882;37.654;2023-09-12T13:05:23;8.35;;;4.90;;
50671;SDS011;46021;55.882;37.654;2023-09-12T13:07:51;6.05;;;4.43;;
50671;SDS011;46021;55.882;37.654;2023-09-12T13:10:20;7.07;;;4.80;;
50671;SDS011;46021;55.882;37.654;2023-09-12T13:12:48;9.80;;;5.30;;
50671;SDS011;46021;55.882;37.654;2023-09-12T13:15:16;8.65;;;4.90;;
50671;SDS011;46021;55.882;37.654;2023-09-12T13:17:44;9.65;;;5.68;;
50671;SDS011;46021;55.882;37.654;2023-09-12T13:20:11;13.73;;;6.40;;
50671;SDS011;46021;55.882;37.654;2023-09-12T13:22:40;10.00;;;5.65;;
50671;SDS011;46021;55.882;37.654;2023-09-12T13:25:09;7.78;;;5.15;;
50671;SDS011;46021;55.882;37.654;2023-09-12T13:27:36;18.55;;;10.82;;
50671;SDS011;46021;55.882;37.654;2023-09-12T13:32:31;9.38;;;6.15;;
50671;SDS011;46021;55.882;37.654;2023-09-12T13:34:58;12.52;;;6.20;;
50671;SDS011;46021;55.882;37.654;2023-09-12T13:37:25;10.65;;;6.43;;
50671;SDS011;46021;55.882;37.654;2023-09-12T13:39:54;8.93;;;5.70;;
50671;SDS011;46021;55.882;37.654;2023-09-12T13:42:21;9.55;;;5.60;;
50671;SDS011;46021;55.882;37.654;2023-09-12T13:44:48;10.13;;;5.38;;
50671;SDS011;46021;55.882;37.654;2023-09-12T13:49:47;9.15;;;5.30;;
50671;SDS011;46021;55.882;37.654;2023-09-12T13:52:13;9.95;;;5.20;;
50671;SDS011;46021;55.882;37.654;2023-09-12T13:54:40;11.35;;;5.90;;
50671;SDS011;46021;55.882;37.654;2023-09-12T13:57:08;11.25;;;5.18;;
50671;SDS011;46021;55.882;37.654;2023-09-12T13:59:35;15.45;;;5.55;;
50671;SDS011;46021;55.882;37.654;2023-09-12T14:02:03;11.77;;;5.40;;
50671;SDS011;46021;55.882;37.654;2023-09-12T14:04:30;8.98;;;4.72;;
50671;SDS011;46021;55.882;37.654;2023-09-12T14:06:57;12.07;;;5.20;;
50671;SDS011;46021;55.882;37.654;2023-09-12T14:09:24;10.20;;;4.50;;
50671;SDS011;46021;55.882;37.654;2023-09-12T14:11:51;8.68;;;4.65;;
50671;SDS011;46021;55.882;37.654;2023-09-12T14:14:19;11.88;;;5.03;;
50671;SDS011;46021;55.882;37.654;2023-09-12T14:16:46;7.72;;;5.15;;
50671;SDS011;46021;55.882;37.654;2023-09-12T14:19:13;9.75;;;5.20;;
50671;SDS011;46021;55.882;37.654;2023-09-12T14:21:41;11.02;;;5.20;;
50671;SDS011;46021;55.882;37.654;2023-09-12T14:24:09;7.43;;;5.40;;
50671;SDS011;46021;55.882;37.654;2023-09-12T14:26:36;7.72;;;4.80;;
50671;SDS011;46021;55.882;37.654;2023-09-12T14:29:03;10.25;;;5.45;;
50671;SDS011;46021;55.882;37.654;2023-09-12T14:31:32;7.55;;;4.93;;
50671;SDS011;46021;55.882;37.654;2023-09-12T14:34:01;7.28;;;4.80;;
50671;SDS011;46021;55.882;37.654;2023-09-12T14:36:29;11.43;;;5.00;;
50671;SDS011;46021;55.882;37.654;2023-09-12T14:38:56;8.68;;;5.40;;
50671;SDS011;46021;55.882;37.654;2023-09-12T14:41:24;12.43;;;4.97;;
50671;SDS011;46021;55.882;37.654;2023-09-12T14:43:51;8.95;;;4.78;;
50671;SDS011;46021;55.882;37.654;2023-09-12T14:46:18;8.07;;;4.90;;
50671;SDS011;46021;55.882;37.654;2023-09-12T14:48:46;9.63;;;5.57;;
50671;SDS011;46021;55.882;37.654;2023-09-12T14:51:13;7.18;;;4.78;;
50671;SDS011;46021;55.882;37.654;2023-09-12T14:53:40;9.50;;;5.47;;
50671;SDS011;46021;55.882;37.654;2023-09-12T14:56:10;11.55;;;5.45;;
50671;SDS011;46021;55.882;37.654;2023-09-12T14:58:37;8.93;;;5.18;;